createdAt,value
2022-11-27T00:00:38.532Z,0
2022-11-27T00:01:44.816Z,0
2022-11-27T00:02:51.197Z,0
2022-11-27T00:03:57.468Z,0
2022-11-27T00:05:03.679Z,0
2022-11-27T00:06:10.024Z,0
2022-11-27T00:07:16.257Z,0
2022-11-27T00:08:22.582Z,0
2022-11-27T00:09:28.848Z,0
2022-11-27T00:10:35.151Z,0
2022-11-27T00:11:41.447Z,0
2022-11-27T00:12:47.770Z,0
2022-11-27T00:13:54.087Z,0
2022-11-27T00:15:00.451Z,0
2022-11-27T00:16:06.840Z,0
2022-11-27T00:17:13.265Z,0
2022-11-27T00:18:19.682Z,0
2022-11-27T00:19:25.940Z,0
2022-11-27T00:20:32.326Z,0
2022-11-27T00:21:38.780Z,0
2022-11-27T00:22:45.057Z,0
2022-11-27T00:23:51.424Z,0
2022-11-27T00:24:57.819Z,0
2022-11-27T00:26:04.155Z,0
2022-11-27T00:27:10.519Z,0
2022-11-27T00:28:17.068Z,0
2022-11-27T00:29:23.538Z,0
2022-11-27T00:30:28.937Z,0
2022-11-27T00:31:35.239Z,0
2022-11-27T00:32:41.516Z,0
2022-11-27T00:33:47.854Z,0
2022-11-27T00:34:54.181Z,0
2022-11-27T00:36:00.455Z,0
2022-11-27T00:37:06.781Z,0
2022-11-27T00:38:12.986Z,0
2022-11-27T00:39:19.355Z,0
2022-11-27T00:40:25.554Z,0
2022-11-27T00:41:31.855Z,0
2022-11-27T00:42:38.213Z,0
2022-11-27T00:43:44.505Z,0
2022-11-27T00:44:50.794Z,0
2022-11-27T00:45:57.147Z,0
2022-11-27T00:47:03.343Z,0
2022-11-27T00:48:09.644Z,0
2022-11-27T00:49:15.958Z,0
2022-11-27T00:50:22.248Z,0
2022-11-27T00:51:28.621Z,0
2022-11-27T00:52:34.827Z,0
2022-11-27T00:53:41.137Z,0
2022-11-27T00:54:47.517Z,0
2022-11-27T00:55:53.719Z,0
2022-11-27T00:57:00.076Z,0
2022-11-27T00:58:06.402Z,0
2022-11-27T00:59:12.813Z,0
2022-11-27T01:00:19.166Z,0
2022-11-27T01:01:25.545Z,0
2022-11-27T01:02:31.961Z,0
2022-11-27T01:03:38.337Z,0
2022-11-27T01:04:44.668Z,0
2022-11-27T01:05:51.109Z,0
2022-11-27T01:06:57.434Z,0
2022-11-27T01:08:03.812Z,0
2022-11-27T01:09:10.203Z,0
2022-11-27T01:10:16.584Z,0
2022-11-27T01:11:23.096Z,0
2022-11-27T01:12:29.512Z,0
2022-11-27T01:13:34.956Z,0
2022-11-27T01:14:41.314Z,0
2022-11-27T01:15:47.695Z,0
2022-11-27T01:16:54.112Z,0
2022-11-27T01:18:00.434Z,0
2022-11-27T01:19:06.891Z,0
2022-11-27T01:20:13.167Z,0
2022-11-27T01:21:19.541Z,0
2022-11-27T01:22:25.988Z,0
2022-11-27T01:23:32.295Z,0
2022-11-27T01:24:38.655Z,0
2022-11-27T01:25:45.022Z,0
2022-11-27T01:26:51.424Z,0
2022-11-27T01:27:57.886Z,0
2022-11-27T01:29:04.217Z,0
2022-11-27T01:30:10.492Z,0
2022-11-27T01:31:16.867Z,0
2022-11-27T01:32:23.229Z,0
2022-11-27T01:33:29.631Z,0
2022-11-27T01:34:35.984Z,0
2022-11-27T01:35:42.362Z,0
2022-11-27T01:36:48.783Z,0
2022-11-27T01:37:55.089Z,0
2022-11-27T01:39:01.485Z,0
2022-11-27T01:40:07.876Z,0
2022-11-27T01:41:14.337Z,0
2022-11-27T01:42:19.808Z,0
2022-11-27T01:43:26.072Z,0
2022-11-27T01:44:32.283Z,0
2022-11-27T01:45:38.582Z,0
2022-11-27T01:46:44.929Z,0
2022-11-27T01:47:51.155Z,0
2022-11-27T01:48:57.454Z,0
2022-11-27T01:50:03.764Z,0
2022-11-27T01:51:10.030Z,0
2022-11-27T01:52:16.397Z,0
2022-11-27T01:53:22.628Z,0
2022-11-27T01:54:28.894Z,0
2022-11-27T01:55:35.185Z,0
2022-11-27T01:56:41.470Z,0
2022-11-27T01:57:47.868Z,0
2022-11-27T01:58:54.095Z,0
2022-11-27T02:00:00.522Z,0
2022-11-27T02:01:06.669Z,0
2022-11-27T02:02:12.998Z,0
2022-11-27T02:03:19.320Z,0
2022-11-27T02:04:25.512Z,0
2022-11-27T02:05:31.834Z,0
2022-11-27T02:06:38.106Z,0
2022-11-27T02:07:44.390Z,0
2022-11-27T02:08:50.830Z,0
2022-11-27T02:09:57.147Z,0
2022-11-27T02:11:03.436Z,0
2022-11-27T02:12:09.803Z,0
2022-11-27T02:13:16.265Z,0
2022-11-27T02:14:22.654Z,0
2022-11-27T02:15:28.917Z,0
2022-11-27T02:16:35.311Z,0
2022-11-27T02:17:41.659Z,0
2022-11-27T02:18:48.038Z,0
2022-11-27T02:19:54.443Z,0
2022-11-27T02:21:00.842Z,0
2022-11-27T02:22:07.158Z,0
2022-11-27T02:23:13.525Z,0
2022-11-27T02:24:20.044Z,0
2022-11-27T02:25:25.445Z,0
2022-11-27T02:26:31.851Z,0
2022-11-27T02:27:38.081Z,0
2022-11-27T02:28:44.366Z,0
2022-11-27T02:29:50.644Z,0
2022-11-27T02:30:56.944Z,0
2022-11-27T02:32:03.239Z,0
2022-11-27T02:33:09.659Z,0
2022-11-27T02:34:15.833Z,0
2022-11-27T02:35:22.147Z,0
2022-11-27T02:36:28.457Z,0
2022-11-27T02:37:34.754Z,0
2022-11-27T02:38:41.023Z,0
2022-11-27T02:39:47.330Z,0
2022-11-27T02:40:53.630Z,0
2022-11-27T02:41:59.926Z,0
2022-11-27T02:43:06.230Z,0
2022-11-27T02:44:12.527Z,0
2022-11-27T02:45:18.954Z,0
2022-11-27T02:46:25.161Z,0
2022-11-27T02:47:31.424Z,0
2022-11-27T02:48:37.729Z,0
2022-11-27T02:49:44.033Z,0
2022-11-27T02:50:50.320Z,0
2022-11-27T02:51:56.618Z,0
2022-11-27T02:53:03.008Z,0
2022-11-27T02:54:09.435Z,0
2022-11-27T02:55:15.792Z,0
2022-11-27T02:56:22.102Z,0
2022-11-27T02:57:28.484Z,0
2022-11-27T02:58:34.934Z,0
2022-11-27T02:59:41.246Z,0
2022-11-27T03:00:47.723Z,0
2022-11-27T03:01:53.993Z,0
2022-11-27T03:03:00.433Z,0
2022-11-27T03:04:06.752Z,0
2022-11-27T03:05:13.134Z,0
2022-11-27T03:06:19.561Z,0
2022-11-27T03:07:26.011Z,0
2022-11-27T03:08:32.504Z,0
2022-11-27T03:09:39.093Z,0
2022-11-27T03:10:45.567Z,0
2022-11-27T03:11:52.059Z,0
2022-11-27T03:12:58.544Z,0
2022-11-27T03:14:05.014Z,0
2022-11-27T03:15:11.507Z,0
2022-11-27T03:16:18.015Z,0
2022-11-27T03:17:24.522Z,0
2022-11-27T03:18:31.017Z,0
2022-11-27T03:19:37.525Z,0
2022-11-27T03:20:44.088Z,0
2022-11-27T08:03:57.224Z,0
2022-11-27T08:05:02.476Z,6988
2022-11-27T08:06:08.495Z,7093
2022-11-27T08:07:14.656Z,7180
2022-11-27T08:08:20.841Z,7805
2022-11-27T08:09:27.005Z,7445
2022-11-27T08:10:33.046Z,8092
2022-11-27T08:11:39.243Z,7856
2022-11-27T08:12:45.302Z,7438
2022-11-27T08:13:51.415Z,7771
2022-11-27T08:14:57.601Z,8237
2022-11-27T08:16:03.701Z,6401
2022-11-27T08:17:09.720Z,9599
2022-11-27T08:18:15.847Z,10024
2022-11-27T08:19:21.904Z,7488
2022-11-27T08:20:28.024Z,8387
2022-11-27T08:21:34.165Z,8232
2022-11-27T08:22:40.255Z,9031
2022-11-27T08:23:46.543Z,7969
2022-11-27T08:24:52.510Z,8403
2022-11-27T08:25:58.668Z,8447
2022-11-27T08:27:04.718Z,8167
2022-11-27T08:28:10.802Z,8483
2022-11-27T08:29:16.923Z,9709
2022-11-27T08:30:23.225Z,7680
2022-11-27T08:31:29.183Z,8610
2022-11-27T08:32:35.312Z,8751
2022-11-27T08:33:40.655Z,7770
2022-11-27T08:34:46.715Z,9136
2022-11-27T08:35:52.687Z,8677
2022-11-27T08:36:58.913Z,8509
2022-11-27T08:38:04.914Z,7637
2022-11-27T08:39:11.019Z,9928
2022-11-27T08:40:17.146Z,8272
2022-11-27T08:41:23.190Z,9178
2022-11-27T08:42:29.318Z,8723
2022-11-27T08:43:35.444Z,9476
2022-11-27T08:44:41.495Z,8757
2022-11-27T08:45:47.659Z,9809
2022-11-27T08:46:53.782Z,9291
2022-11-27T08:47:59.790Z,8975
2022-11-27T08:49:05.911Z,9861
2022-11-27T08:50:12.052Z,8292
2022-11-27T08:51:18.116Z,9913
2022-11-27T08:52:24.291Z,9394
2022-11-27T08:53:30.295Z,8562
2022-11-27T08:54:36.402Z,9037
2022-11-27T08:55:42.485Z,9354
2022-11-27T08:56:48.581Z,10219
2022-11-27T08:57:54.725Z,7308
2022-11-27T08:59:00.736Z,8789
2022-11-27T09:00:06.897Z,9112
2022-11-27T09:01:13.101Z,8825
2022-11-27T09:02:19.320Z,8368
2022-11-27T09:03:24.367Z,9126
2022-11-27T09:04:30.448Z,8814
2022-11-27T09:05:36.557Z,8370
2022-11-27T09:06:42.744Z,8431
2022-11-27T09:07:48.760Z,8756
2022-11-27T09:08:55.032Z,9382
2022-11-27T09:10:00.959Z,9378
2022-11-27T09:11:07.133Z,8385
2022-11-27T09:12:13.360Z,7814
2022-11-27T09:13:19.238Z,8292
2022-11-27T09:14:25.445Z,8468
2022-11-27T09:15:31.615Z,8000
2022-11-27T09:16:37.678Z,8635
2022-11-27T09:17:43.633Z,8478
2022-11-27T09:18:49.741Z,9339
2022-11-27T09:19:55.865Z,8613
2022-11-27T09:21:01.935Z,8365
2022-11-27T09:22:08.025Z,9361
2022-11-27T09:23:14.093Z,8725
2022-11-27T09:24:20.238Z,8767
2022-11-27T09:25:26.389Z,9131
2022-11-27T09:26:32.503Z,9330
2022-11-27T09:27:38.532Z,9027
2022-11-27T09:28:44.530Z,9345
2022-11-27T09:29:50.741Z,9315
2022-11-27T09:30:57.219Z,8664
2022-11-27T09:32:03.042Z,8389
2022-11-27T09:33:09.237Z,9051
2022-11-27T09:34:15.385Z,8116
2022-11-27T09:35:21.596Z,8833
2022-11-27T09:36:27.760Z,8964
2022-11-27T09:37:33.881Z,8280
2022-11-27T09:38:39.954Z,8454
2022-11-27T09:39:46.113Z,7949
2022-11-27T09:40:52.246Z,8593
2022-11-27T09:41:58.494Z,7991
2022-11-27T09:43:04.599Z,7678
2022-11-27T09:44:10.715Z,7995
2022-11-27T09:45:17.106Z,8050
2022-11-27T09:46:22.215Z,7724
2022-11-27T09:47:28.365Z,7525
2022-11-27T09:48:34.479Z,7631
2022-11-27T09:49:40.435Z,7990
2022-11-27T09:50:46.580Z,7792
2022-11-27T09:51:52.632Z,7474
2022-11-27T09:52:58.787Z,7575
2022-11-27T09:54:04.776Z,7657
2022-11-27T09:55:10.845Z,7543
2022-11-27T09:56:17.043Z,7607
2022-11-27T09:57:23.113Z,7328
2022-11-27T09:58:29.136Z,7403
2022-11-27T09:59:35.188Z,7379
2022-11-27T10:00:41.285Z,7259
2022-11-27T10:01:47.376Z,7417
2022-11-27T10:02:53.372Z,7230
2022-11-27T10:03:59.448Z,7193
2022-11-27T10:05:05.518Z,7287
2022-11-27T10:06:11.651Z,7147
2022-11-27T10:07:17.730Z,7148
2022-11-27T10:08:23.773Z,7062
2022-11-27T10:09:29.901Z,6990
2022-11-27T10:10:35.898Z,6865
2022-11-27T10:11:42.167Z,6889
2022-11-27T10:12:48.046Z,6931
2022-11-27T10:13:54.343Z,6812
2022-11-27T10:15:00.480Z,6922
2022-11-27T10:16:06.484Z,6801
2022-11-27T10:17:12.636Z,6669
2022-11-27T10:18:18.978Z,6817
2022-11-27T10:19:25.156Z,6714
2022-11-27T10:20:31.223Z,6745
2022-11-27T10:21:37.232Z,6669
2022-11-27T10:22:43.547Z,6615
2022-11-27T10:23:49.638Z,6678
2022-11-27T10:24:55.813Z,6618
2022-11-27T10:26:01.986Z,6633
2022-11-27T10:27:08.148Z,6509
2022-11-27T10:28:14.284Z,6583
2022-11-27T10:29:19.546Z,6633
2022-11-27T10:30:25.536Z,6676
2022-11-27T10:31:31.694Z,6676
2022-11-27T10:32:37.788Z,6656
2022-11-27T10:33:43.772Z,6586
2022-11-27T10:34:49.751Z,6552
2022-11-27T10:35:55.900Z,6561
2022-11-27T10:37:01.965Z,6576
2022-11-27T10:38:07.936Z,6616
2022-11-27T10:39:14.147Z,6445
2022-11-27T10:40:19.991Z,6504
2022-11-27T10:41:26.174Z,6522
2022-11-27T10:42:32.249Z,6479
2022-11-27T10:43:38.312Z,6504
2022-11-27T10:44:44.404Z,6514
2022-11-27T10:45:50.489Z,6470
2022-11-27T10:46:56.300Z,6404
2022-11-27T10:48:02.399Z,6407
2022-11-27T10:49:08.584Z,6414
2022-11-27T10:50:14.669Z,6432
2022-11-27T10:51:20.700Z,8511
2022-11-27T10:52:26.775Z,5794
2022-11-27T10:53:32.874Z,4694
2022-11-27T10:54:38.807Z,9400
2022-11-27T10:55:44.900Z,7604
2022-11-27T10:56:50.992Z,4096
2022-11-27T10:57:57.164Z,5263
2022-11-27T10:59:03.274Z,6126
2022-11-27T11:00:09.403Z,6439
2022-11-27T11:01:15.479Z,8606
2022-11-27T11:02:21.645Z,7570
2022-11-27T11:03:27.584Z,3652
2022-11-27T11:04:33.883Z,7327
2022-11-27T11:05:39.992Z,8310
2022-11-27T11:06:46.111Z,6481
2022-11-27T11:07:52.230Z,6794
2022-11-27T11:08:58.325Z,6650
2022-11-27T11:10:04.293Z,6683
2022-11-27T11:11:10.753Z,7071
2022-11-27T11:12:16.948Z,5791
2022-11-27T11:13:21.956Z,6924
2022-11-27T11:14:27.992Z,7682
2022-11-27T11:15:34.192Z,8729
2022-11-27T11:16:40.209Z,6546
2022-11-27T11:17:46.170Z,5610
2022-11-27T11:18:52.332Z,4635
2022-11-27T11:19:58.309Z,4268
2022-11-27T11:21:04.387Z,5915
2022-11-27T11:22:10.474Z,6452
2022-11-27T11:23:16.458Z,6839
2022-11-27T11:24:22.409Z,7488
2022-11-27T11:25:28.371Z,7672
2022-11-27T11:26:34.431Z,7505
2022-11-27T11:27:40.451Z,8514
2022-11-27T11:28:46.489Z,7680
2022-11-27T11:29:52.520Z,7858
2022-11-27T11:30:58.687Z,8002
2022-11-27T11:32:04.758Z,7251
2022-11-27T11:33:10.754Z,6089
2022-11-27T11:34:16.843Z,5863
2022-11-27T11:35:22.718Z,5375
2022-11-27T11:36:28.782Z,6648
2022-11-27T11:37:34.874Z,5772
2022-11-27T11:38:40.902Z,7740
2022-11-27T11:39:46.934Z,5131
2022-11-27T11:40:53.073Z,6325
2022-11-27T11:41:59.123Z,5377
2022-11-27T11:43:05.330Z,4108
2022-11-27T11:44:11.356Z,5919
2022-11-27T11:45:17.389Z,6826
2022-11-27T11:46:23.506Z,4545
2022-11-27T11:47:29.615Z,5875
2022-11-27T11:48:35.770Z,6197
2022-11-27T11:49:41.789Z,5175
2022-11-27T11:50:47.893Z,4377
2022-11-27T11:51:54.062Z,4111
2022-11-27T11:53:00.280Z,7207
2022-11-27T11:54:06.362Z,5765
2022-11-27T11:55:12.622Z,3216
2022-11-27T11:56:18.834Z,5457
2022-11-27T11:57:23.920Z,5130
2022-11-27T11:58:29.920Z,5044
2022-11-27T11:59:36.045Z,6483
2022-11-27T12:00:42.019Z,5992
2022-11-27T12:01:48.070Z,6411
2022-11-27T12:02:54.083Z,6514
2022-11-27T12:04:00.327Z,6365
2022-11-27T12:05:06.460Z,6433
2022-11-27T12:06:12.395Z,6231
2022-11-27T12:07:18.460Z,6449
2022-11-27T12:08:24.416Z,6469
2022-11-27T12:09:30.512Z,6457
2022-11-27T12:10:36.544Z,6464
2022-11-27T12:11:42.403Z,6464
2022-11-27T12:12:48.580Z,6492
2022-11-27T12:13:54.643Z,6158
2022-11-27T12:15:00.698Z,6455
2022-11-27T12:16:06.679Z,6524
2022-11-27T12:17:12.711Z,6864
2022-11-27T12:18:18.790Z,6618
2022-11-27T12:19:24.758Z,6702
2022-11-27T12:20:30.889Z,6705
2022-11-27T12:21:36.858Z,6078
2022-11-27T12:22:42.929Z,6242
2022-11-27T12:23:48.957Z,6038
2022-11-27T12:24:55.049Z,6341
2022-11-27T12:26:01.211Z,6406
2022-11-27T12:27:07.303Z,6164
2022-11-27T12:28:13.371Z,6170
2022-11-27T12:29:19.459Z,6127
2022-11-27T12:30:25.413Z,6196
2022-11-27T12:31:31.612Z,6274
2022-11-27T12:32:37.623Z,6084
2022-11-27T12:33:43.759Z,6132
2022-11-27T12:34:50.075Z,6002
2022-11-27T12:35:56.083Z,7149
2022-11-27T12:37:02.198Z,4895
2022-11-27T12:38:08.138Z,6497
2022-11-27T12:39:14.518Z,6162
2022-11-27T12:40:20.694Z,6488
2022-11-27T12:41:26.042Z,5366
2022-11-27T12:42:32.165Z,5091
2022-11-27T12:43:38.179Z,4735
2022-11-27T12:44:44.266Z,4026
2022-11-27T12:45:50.378Z,4489
2022-11-27T12:46:56.490Z,3899
2022-11-27T12:48:02.604Z,4044
2022-11-27T12:49:08.747Z,5080
2022-11-27T12:50:14.716Z,5294
2022-11-27T12:51:20.965Z,5490
2022-11-27T12:52:27.083Z,5417
2022-11-27T12:53:33.175Z,5451
2022-11-27T12:54:39.390Z,5365
2022-11-27T12:55:45.458Z,5220
2022-11-27T12:56:51.526Z,5063
2022-11-27T12:57:57.690Z,5037
2022-11-27T12:59:03.782Z,5042
2022-11-27T13:00:09.953Z,5014
2022-11-27T13:01:16.003Z,4873
2022-11-27T13:02:22.176Z,4845
2022-11-27T13:03:28.101Z,4744
2022-11-27T13:04:34.320Z,4773
2022-11-27T13:05:40.460Z,4828
2022-11-27T13:06:46.650Z,4887
2022-11-27T13:07:52.666Z,4968
2022-11-27T13:08:58.857Z,4696
2022-11-27T13:10:04.201Z,4620
2022-11-27T13:11:10.121Z,4426
2022-11-27T13:12:16.153Z,4464
2022-11-27T13:13:22.295Z,4494
2022-11-27T13:14:28.299Z,4475
2022-11-27T13:15:34.417Z,4398
2022-11-27T13:16:40.382Z,4233
2022-11-27T13:17:46.381Z,4358
2022-11-27T13:18:52.376Z,4370
2022-11-27T13:19:58.525Z,4315
2022-11-27T13:21:04.466Z,4132
2022-11-27T13:22:10.484Z,4175
2022-11-27T13:23:16.520Z,4128
2022-11-27T13:24:22.539Z,3975
2022-11-27T13:25:28.566Z,3904
2022-11-27T13:26:34.672Z,3789
2022-11-27T13:27:40.783Z,3781
2022-11-27T13:28:46.714Z,3736
2022-11-27T13:29:52.739Z,3663
2022-11-27T13:30:58.876Z,3566
2022-11-27T13:32:04.845Z,3491
2022-11-27T13:33:10.936Z,3444
2022-11-27T13:34:16.901Z,3437
2022-11-27T13:35:22.920Z,3361
2022-11-27T13:36:29.359Z,3323
2022-11-27T13:37:35.234Z,3339
2022-11-27T13:38:41.285Z,3344
2022-11-27T13:39:47.491Z,3318
2022-11-27T13:40:53.467Z,3344
2022-11-27T13:41:59.564Z,3280
2022-11-27T13:43:05.768Z,3188
2022-11-27T13:44:11.834Z,3135
2022-11-27T13:45:17.975Z,3092
2022-11-27T13:46:24.117Z,3041
2022-11-27T13:47:30.243Z,2937
2022-11-27T13:48:36.326Z,3000
2022-11-27T13:49:42.429Z,2941
2022-11-27T13:50:48.540Z,2865
2022-11-27T13:51:54.795Z,2929
2022-11-27T13:52:59.999Z,2834
2022-11-27T13:54:06.031Z,2842
2022-11-27T13:55:12.130Z,2853
2022-11-27T13:56:18.143Z,2836
2022-11-27T13:57:24.184Z,2704
2022-11-27T13:58:30.222Z,2773
2022-11-27T13:59:36.332Z,2835
2022-11-27T14:00:42.321Z,2860
2022-11-27T14:01:48.512Z,2656
2022-11-27T14:02:54.561Z,2762
2022-11-27T14:04:00.528Z,2886
2022-11-27T14:05:06.526Z,3009
2022-11-27T14:06:12.567Z,2976
2022-11-27T14:07:18.613Z,3024
2022-11-27T14:08:24.660Z,2971
2022-11-27T14:09:30.707Z,2971
2022-11-27T14:10:36.757Z,2971
2022-11-27T14:11:42.801Z,3067
2022-11-27T14:12:48.842Z,3073
2022-11-27T14:13:54.903Z,2844
2022-11-27T14:15:00.952Z,2730
2022-11-27T14:16:07.083Z,2641
2022-11-27T14:17:13.034Z,2550
2022-11-27T14:18:19.099Z,2480
2022-11-27T14:19:25.126Z,2404
2022-11-27T14:20:31.241Z,2344
2022-11-27T14:21:37.453Z,2255
2022-11-27T14:22:43.494Z,2180
2022-11-27T14:23:49.635Z,2107
2022-11-27T14:24:55.746Z,2053
2022-11-27T14:26:02.003Z,1971
2022-11-27T14:27:08.024Z,1895
2022-11-27T14:28:14.194Z,1827
2022-11-27T14:29:20.267Z,1751
2022-11-27T14:30:26.400Z,1667
2022-11-27T14:31:32.574Z,1606
2022-11-27T14:32:38.679Z,1536
2022-11-27T14:33:44.821Z,1476
2022-11-27T14:34:51.031Z,1411
2022-11-27T14:35:56.239Z,1346
2022-11-27T14:37:02.376Z,1324
2022-11-27T14:38:08.344Z,1250
2022-11-27T14:39:14.460Z,1206
2022-11-27T14:40:20.451Z,1160
2022-11-27T14:41:26.517Z,1094
2022-11-27T14:42:32.645Z,1064
2022-11-27T14:43:38.697Z,1029
2022-11-27T14:44:44.797Z,985
2022-11-27T14:45:50.745Z,937
2022-11-27T14:46:56.803Z,893
2022-11-27T14:48:02.887Z,861
2022-11-27T14:49:09.000Z,822
2022-11-27T14:50:15.065Z,782
2022-11-27T14:51:21.130Z,742
2022-11-27T14:52:27.111Z,684
2022-11-27T14:53:33.181Z,661
2022-11-27T14:54:39.253Z,643
2022-11-27T14:55:45.283Z,586
2022-11-27T14:56:51.339Z,541
2022-11-27T14:57:57.420Z,483
2022-11-27T14:59:03.455Z,422
2022-11-27T15:00:09.533Z,374
2022-11-27T15:01:15.594Z,339
2022-11-27T15:02:21.731Z,301
2022-11-27T15:03:27.832Z,280
2022-11-27T15:04:33.934Z,261
2022-11-27T15:05:40.118Z,237
2022-11-27T15:06:46.234Z,218
2022-11-27T15:07:52.379Z,207
2022-11-27T15:08:58.485Z,188
2022-11-27T15:10:04.761Z,173
2022-11-27T15:11:10.791Z,157
2022-11-27T15:12:17.037Z,136
2022-11-27T15:13:23.183Z,128
2022-11-27T15:14:29.213Z,115
2022-11-27T15:15:35.345Z,100
2022-11-27T15:16:41.480Z,90
2022-11-27T15:17:47.801Z,79
2022-11-27T15:18:52.973Z,72
2022-11-27T15:19:59.030Z,58
2022-11-27T15:21:05.126Z,56
2022-11-27T15:22:11.173Z,47
2022-11-27T15:23:17.277Z,41
2022-11-27T15:24:23.296Z,19
2022-11-27T15:25:29.425Z,23
2022-11-27T15:26:35.482Z,18
2022-11-27T15:27:41.497Z,13
2022-11-27T15:28:47.579Z,13
2022-11-27T15:29:53.629Z,9
2022-11-27T15:30:59.742Z,9
2022-11-27T15:32:05.837Z,4
2022-11-27T15:33:11.849Z,4
2022-11-27T15:34:17.967Z,4
2022-11-27T15:35:23.963Z,4
2022-11-27T15:36:30.042Z,0
2022-11-27T15:37:36.122Z,3
2022-11-27T15:38:42.150Z,3
2022-11-27T15:39:48.247Z,3
2022-11-27T15:40:54.278Z,0
2022-11-27T15:42:00.438Z,0
2022-11-27T15:43:06.422Z,0
2022-11-27T15:44:12.521Z,0
2022-11-27T15:45:18.626Z,0
2022-11-27T15:46:24.667Z,0
2022-11-27T15:47:30.893Z,0
2022-11-27T15:48:36.949Z,0
2022-11-27T15:49:43.225Z,0
2022-11-27T15:50:49.307Z,0
2022-11-27T15:51:55.496Z,0
2022-11-27T15:53:01.623Z,0
2022-11-27T15:54:07.617Z,0
2022-11-27T15:55:13.764Z,0
2022-11-27T15:56:20.015Z,0
2022-11-27T15:57:26.378Z,0
2022-11-27T15:58:32.311Z,0
2022-11-27T15:59:38.408Z,0
2022-11-27T16:00:44.617Z,0
2022-11-27T16:01:49.835Z,0
2022-11-27T16:02:56.062Z,0
2022-11-27T16:04:02.009Z,0
2022-11-27T16:05:08.059Z,0
2022-11-27T16:06:14.111Z,0
2022-11-27T16:07:20.333Z,0
2022-11-27T16:08:26.293Z,0
2022-11-27T16:09:32.303Z,0
2022-11-27T16:10:38.362Z,0
2022-11-27T16:11:44.425Z,0
2022-11-27T16:12:50.494Z,0
2022-11-27T16:13:56.559Z,0
2022-11-27T16:15:02.734Z,0
2022-11-27T16:16:08.727Z,0
2022-11-27T16:17:14.823Z,0
2022-11-27T16:18:20.920Z,0
2022-11-27T16:19:26.924Z,0
2022-11-27T16:20:33.043Z,0
2022-11-27T16:21:39.161Z,0
2022-11-27T16:22:45.130Z,0
2022-11-27T16:23:51.209Z,0
2022-11-27T16:24:57.260Z,0
2022-11-27T16:26:03.389Z,0
2022-11-27T16:27:09.373Z,0
2022-11-27T16:28:15.444Z,0
2022-11-27T16:29:21.604Z,0
2022-11-27T16:30:27.741Z,0
2022-11-27T16:31:33.903Z,0
2022-11-27T16:32:40.113Z,0
2022-11-27T16:33:46.262Z,0
2022-11-27T16:34:52.353Z,0
2022-11-27T16:35:58.536Z,0
2022-11-27T16:37:04.744Z,0
2022-11-27T16:38:10.845Z,0
2022-11-27T16:39:16.936Z,0
2022-11-27T16:40:23.158Z,0
2022-11-27T16:41:29.351Z,0
2022-11-27T16:42:35.487Z,0
2022-11-27T16:43:41.676Z,0
2022-11-27T16:44:46.894Z,0
2022-11-27T16:45:52.937Z,0
2022-11-27T16:46:59.136Z,0
2022-11-27T16:48:05.086Z,0
2022-11-27T16:49:11.219Z,0
2022-11-27T16:50:17.225Z,0
2022-11-27T16:51:23.347Z,0
2022-11-27T16:52:29.443Z,0
2022-11-27T16:53:35.432Z,0
2022-11-27T16:54:41.491Z,0
2022-11-27T16:55:47.553Z,0
2022-11-27T16:56:53.612Z,0
2022-11-27T16:57:59.782Z,0
2022-11-27T16:59:05.788Z,0
2022-11-27T17:00:11.864Z,0
2022-11-27T17:01:17.908Z,0
2022-11-27T17:02:24.106Z,0
2022-11-27T17:03:30.042Z,0
2022-11-27T17:04:36.139Z,0
2022-11-27T17:05:42.177Z,0
2022-11-27T17:06:48.306Z,0
2022-11-27T17:07:54.376Z,0
2022-11-27T17:09:00.446Z,0
2022-11-27T17:10:06.446Z,0
2022-11-27T17:11:12.555Z,0
2022-11-27T17:12:18.725Z,0
2022-11-27T17:13:24.799Z,0
2022-11-27T17:14:30.945Z,0
2022-11-27T17:15:37.109Z,0
2022-11-27T17:16:43.399Z,0
2022-11-27T17:17:49.397Z,0
2022-11-27T17:18:55.671Z,0
2022-11-27T17:20:01.688Z,0
2022-11-27T17:21:07.827Z,0
2022-11-27T17:22:13.988Z,0
2022-11-27T17:23:20.138Z,0
2022-11-27T17:24:26.324Z,0
2022-11-27T17:25:32.477Z,0
2022-11-27T17:26:38.711Z,0
2022-11-27T17:27:44.044Z,0
2022-11-27T17:28:49.986Z,0
2022-11-27T17:29:56.072Z,0
2022-11-27T17:31:02.082Z,0
2022-11-27T17:32:08.151Z,0
2022-11-27T17:33:14.216Z,0
2022-11-27T17:34:20.287Z,0
2022-11-27T17:35:26.342Z,0
2022-11-27T17:36:32.418Z,0
2022-11-27T17:37:38.474Z,0
2022-11-27T17:38:44.564Z,0
2022-11-27T17:39:50.605Z,0
2022-11-27T17:40:56.682Z,0
2022-11-27T17:42:02.738Z,0
2022-11-27T17:43:08.836Z,0
2022-11-27T17:44:14.924Z,0
2022-11-27T17:45:20.943Z,0
2022-11-27T17:46:27.007Z,0
2022-11-27T17:47:33.083Z,0
2022-11-27T17:48:39.153Z,0
2022-11-27T17:49:45.227Z,0
2022-11-27T17:50:51.354Z,0
2022-11-27T17:51:57.368Z,0
2022-11-27T17:53:03.555Z,0
2022-11-27T17:54:09.484Z,0
2022-11-27T17:55:15.703Z,0
2022-11-27T17:56:21.774Z,0
2022-11-27T17:57:28.011Z,0
2022-11-27T17:58:34.071Z,0
2022-11-27T17:59:40.247Z,0
2022-11-27T18:00:46.371Z,0
2022-11-27T18:01:52.540Z,0
2022-11-27T18:02:58.760Z,0
2022-11-27T18:04:04.918Z,0
2022-11-27T18:05:10.965Z,0
2022-11-27T18:06:17.098Z,0
2022-11-27T18:07:23.325Z,0
2022-11-27T18:08:29.405Z,0
2022-11-27T18:09:35.663Z,0
2022-11-27T18:10:41.003Z,0
2022-11-27T18:11:47.125Z,0
2022-11-27T18:12:53.344Z,0
2022-11-27T18:13:59.456Z,0
2022-11-27T18:15:05.576Z,0
2022-11-27T18:16:11.710Z,0
2022-11-27T18:17:17.862Z,0
2022-11-27T18:18:24.137Z,0
2022-11-27T18:19:30.161Z,0
2022-11-27T18:20:36.337Z,0
2022-11-27T18:21:42.458Z,0
2022-11-27T18:22:48.663Z,0
2022-11-27T18:23:54.757Z,0
2022-11-27T18:25:00.916Z,0
2022-11-27T18:26:07.255Z,0
2022-11-27T18:27:13.386Z,0
2022-11-27T18:28:19.537Z,0
2022-11-27T18:29:25.666Z,0
2022-11-27T18:30:31.759Z,0
2022-11-27T18:31:37.926Z,0
2022-11-27T18:32:44.107Z,0
2022-11-27T18:33:50.235Z,0
2022-11-27T18:34:56.251Z,0
2022-11-27T18:36:02.585Z,0
2022-11-27T18:37:08.657Z,0
2022-11-27T18:38:14.975Z,0
2022-11-27T18:39:20.181Z,0
2022-11-27T18:40:26.300Z,0
2022-11-27T18:41:32.359Z,0
2022-11-27T18:42:38.274Z,0
2022-11-27T18:43:44.357Z,0
2022-11-27T18:44:50.419Z,0
2022-11-27T18:45:56.729Z,0
2022-11-27T18:47:02.586Z,0
2022-11-27T18:48:08.673Z,0
2022-11-27T18:49:14.714Z,0
2022-11-27T18:50:20.788Z,0
2022-11-27T18:51:26.913Z,0
2022-11-27T18:52:33.079Z,0
2022-11-27T18:53:39.004Z,0
2022-11-27T18:54:45.187Z,0
2022-11-27T18:55:51.186Z,0
2022-11-27T18:56:57.252Z,0
2022-11-27T18:58:03.305Z,0
2022-11-27T18:59:09.435Z,0
2022-11-27T19:00:15.473Z,0
2022-11-27T19:01:21.530Z,0
2022-11-27T19:02:27.676Z,0
2022-11-27T19:03:33.677Z,0
2022-11-27T19:04:39.774Z,0
2022-11-27T19:05:45.921Z,0
2022-11-27T19:06:51.992Z,0
2022-11-27T19:07:58.127Z,0
2022-11-27T19:09:04.279Z,0
2022-11-27T19:10:10.448Z,0
2022-11-27T19:11:16.586Z,0
2022-11-27T19:12:22.730Z,0
2022-11-27T19:13:28.888Z,0
2022-11-27T19:14:35.053Z,0
2022-11-27T19:15:41.208Z,0
2022-11-27T19:16:47.349Z,0
2022-11-27T19:17:53.539Z,0
2022-11-27T19:18:59.958Z,0
2022-11-27T19:20:05.805Z,0
2022-11-27T19:21:12.099Z,0
2022-11-27T19:22:17.322Z,0
2022-11-27T19:23:23.397Z,0
2022-11-27T19:24:29.481Z,0
2022-11-27T19:25:35.636Z,0
2022-11-27T19:26:41.638Z,0
2022-11-27T19:27:47.737Z,0
2022-11-27T19:28:53.826Z,0
2022-11-27T19:29:59.964Z,0
2022-11-27T19:31:06.130Z,0
2022-11-27T19:32:12.087Z,0
2022-11-27T19:33:18.121Z,0
2022-11-27T19:34:24.259Z,0
2022-11-27T19:35:30.279Z,0
2022-11-27T19:36:36.469Z,0
2022-11-27T19:37:42.479Z,0
2022-11-27T19:38:48.500Z,0
2022-11-27T19:39:54.590Z,0
2022-11-27T19:41:00.675Z,0
2022-11-27T19:42:06.760Z,0
2022-11-27T19:43:12.819Z,0
2022-11-27T19:44:18.945Z,0
2022-11-27T19:45:25.049Z,0
2022-11-27T19:46:31.100Z,0
2022-11-27T19:47:37.145Z,0
2022-11-27T19:48:43.226Z,0
2022-11-27T19:49:49.382Z,0
2022-11-27T19:50:55.536Z,0
2022-11-27T19:52:01.695Z,0
2022-11-27T19:53:07.893Z,0
2022-11-27T19:54:14.031Z,0
2022-11-27T19:55:20.244Z,0
2022-11-27T19:56:26.354Z,0
2022-11-27T19:57:32.510Z,0
2022-11-27T19:58:38.703Z,0
2022-11-27T19:59:44.826Z,0
2022-11-27T20:00:50.996Z,0
2022-11-27T20:01:57.159Z,0
2022-11-27T20:03:03.329Z,0
2022-11-27T20:04:09.612Z,0
2022-11-27T20:05:14.842Z,0
2022-11-27T20:06:20.930Z,0
2022-11-27T20:07:27.012Z,0
2022-11-27T20:08:33.101Z,0
2022-11-27T20:09:39.177Z,0
2022-11-27T20:10:45.315Z,0
2022-11-27T20:11:51.355Z,0
2022-11-27T20:12:57.442Z,0